Time;durP1;ratioP1;P1;durP2;ratioP2;P2;SDS_P1;SDS_P2;PMS_P1;PMS_P2;Temp;Humidity;BMP_temperature;BMP_pressure;BME280_temperature;BME280_humidity;BME280_pressure;Samples;Min_cycle;Max_cycle;Signal;HPM_P1;HPM_P2
2022/07/15 00:01:13;;;;;;;5.38;1.73;;;20.40;90.30;;;;;;4211323;28;20059;-70
2022/07/15 00:03:14;;;;;;;3.28;1.60;;;20.30;90.30;;;;;;4210475;28;20048;-69
2022/07/15 00:05:15;;;;;;;8.68;1.30;;;20.30;90.60;;;;;;4220298;28;20450;-69
2022/07/15 00:07:17;;;;;;;2.85;1.55;;;20.20;90.80;;;;;;4228031;28;20085;-69
2022/07/15 00:09:18;;;;;;;3.33;1.75;;;20.00;91.00;;;;;;4228190;28;20036;-70
2022/07/15 00:11:19;;;;;;;3.08;0.93;;;19.90;91.20;;;;;;4228048;28;20089;-69
2022/07/15 00:13:20;;;;;;;2.42;1.10;;;19.80;91.30;;;;;;4226295;28;20032;-69
2022/07/15 00:15:24;;;;;;;4.80;1.40;;;19.70;91.40;;;;;;4227965;28;20151;-69
2022/07/15 00:17:26;;;;;;;4.85;1.20;;;19.70;91.60;;;;;;4228061;28;20117;-69
2022/07/15 00:19:28;;;;;;;3.38;1.20;;;19.60;91.70;;;;;;4227474;28;20031;-68
2022/07/15 00:21:29;;;;;;;2.60;0.90;;;19.50;91.90;;;;;;4227899;28;20076;-69
2022/07/15 00:23:30;;;;;;;2.50;1.10;;;19.40;92.00;;;;;;4215937;28;20040;-70
2022/07/15 00:25:31;;;;;;;2.13;0.98;;;19.40;92.30;;;;;;4211016;28;20044;-68
2022/07/15 00:27:32;;;;;;;2.88;1.83;;;19.30;92.40;;;;;;4210936;28;20036;-68
2022/07/15 00:29:34;;;;;;;8.93;1.70;;;19.20;92.60;;;;;;4211170;28;20086;-69
2022/07/15 00:31:35;;;;;;;4.82;1.25;;;19.20;92.80;;;;;;4210982;28;20044;-68
2022/07/15 00:33:36;;;;;;;3.13;1.40;;;19.20;92.90;;;;;;4211725;28;20020;-68
2022/07/15 00:35:38;;;;;;;3.60;1.50;;;19.20;93.10;;;;;;4226043;28;20031;-68
2022/07/15 00:37:40;;;;;;;3.85;1.33;;;19.20;93.10;;;;;;4227645;28;20077;-71
2022/07/15 00:39:41;;;;;;;3.72;1.15;;;19.10;93.20;;;;;;4225854;28;20434;-69
2022/07/15 00:41:43;;;;;;;3.90;1.15;;;19.10;93.20;;;;;;4227502;28;20431;-68
2022/07/15 00:43:44;;;;;;;2.17;1.25;;;19.10;93.40;;;;;;4227583;28;20048;-68
2022/07/15 00:45:46;;;;;;;1.60;1.08;;;19.10;93.60;;;;;;4225303;28;20113;-68
2022/07/15 00:47:50;;;;;;;2.67;1.08;;;19.10;93.60;;;;;;4227471;28;20100;-68
2022/07/15 00:49:51;;;;;;;5.05;1.20;;;19.10;93.70;;;;;;4227629;28;20077;-70
2022/07/15 00:51:55;;;;;;;4.57;1.38;;;19.00;93.80;;;;;;4227421;28;20044;-68
2022/07/15 00:53:56;;;;;;;5.00;1.33;;;19.00;93.90;;;;;;4227701;28;20476;-69
2022/07/15 00:56:01;;;;;;;2.95;1.45;;;19.00;94.10;;;;;;4225503;28;20093;-70
2022/07/15 00:58:04;;;;;;;2.67;2.00;;;18.90;94.30;;;;;;4227105;28;20508;-69
2022/07/15 01:00:08;;;;;;;3.85;1.50;;;18.90;94.40;;;;;;4227328;28;20027;-68
2022/07/15 01:02:11;;;;;;;5.75;1.50;;;18.90;94.60;;;;;;4226890;28;20023;-68
2022/07/15 01:04:13;;;;;;;3.20;1.42;;;18.80;94.80;;;;;;4227257;28;20028;-68
2022/07/15 01:06:14;;;;;;;3.22;1.30;;;18.80;94.90;;;;;;4226816;28;20036;-69
2022/07/15 01:08:17;;;;;;;3.60;1.10;;;18.80;95.00;;;;;;4225138;28;20072;-69
2022/07/15 01:10:22;;;;;;;3.92;1.30;;;18.80;95.10;;;;;;4227183;28;20085;-70
2022/07/15 01:12:24;;;;;;;7.25;1.50;;;18.80;95.20;;;;;;4225886;28;20035;-69
2022/07/15 01:14:25;;;;;;;1.73;1.40;;;18.80;95.30;;;;;;4227236;28;20031;-68
2022/07/15 01:16:27;;;;;;;2.40;1.33;;;18.80;95.50;;;;;;4227276;28;20028;-70
2022/07/15 01:18:28;;;;;;;6.72;1.40;;;18.80;95.60;;;;;;4218614;28;20100;-69
2022/07/15 01:20:29;;;;;;;7.55;1.35;;;18.80;95.70;;;;;;4210288;28;20066;-69
2022/07/15 01:22:31;;;;;;;4.43;1.30;;;18.80;96.00;;;;;;4210322;28;20089;-70
2022/07/15 01:24:32;;;;;;;4.15;1.25;;;18.80;96.10;;;;;;4210543;28;20078;-73
2022/07/15 01:26:33;;;;;;;3.55;1.55;;;18.70;96.20;;;;;;4219766;28;20069;-69
2022/07/15 01:28:34;;;;;;;3.45;1.17;;;18.70;96.30;;;;;;4225656;28;20077;-69
2022/07/15 01:30:36;;;;;;;3.33;1.50;;;18.70;96.50;;;;;;4220317;28;20036;-70
2022/07/15 01:32:37;;;;;;;1.85;1.50;;;18.70;96.80;;;;;;4209887;28;20085;-70
2022/07/15 01:34:38;;;;;;;3.80;1.50;;;18.60;96.90;;;;;;4209782;28;20093;-70
2022/07/15 01:36:40;;;;;;;3.88;2.00;;;18.60;97.10;;;;;;4210058;28;20085;-70
2022/07/15 01:38:41;;;;;;;3.53;1.60;;;18.50;97.40;;;;;;4210304;28;20036;-70
2022/07/15 01:40:42;;;;;;;3.55;1.70;;;18.30;98.20;;;;;;4210008;28;20093;-70
2022/07/15 01:42:44;;;;;;;3.63;1.88;;;18.20;98.60;;;;;;4210000;28;20530;-71
2022/07/15 01:44:45;;;;;;;5.30;2.05;;;18.20;99.00;;;;;;4210844;28;20542;-69
2022/07/15 01:46:46;;;;;;;2.60;2.13;;;18.10;99.60;;;;;;4209979;28;20073;-69
2022/07/15 01:51:07;;;;;;;9.52;1.75;;;17.80;99.90;;;;;;4209845;28;20039;-69
2022/07/15 01:53:08;;;;;;;2.97;2.10;;;17.70;99.90;;;;;;4213434;28;20101;-71
2022/07/15 01:55:10;;;;;;;3.75;1.70;;;17.70;99.90;;;;;;4226571;28;20027;-69
2022/07/15 01:57:11;;;;;;;5.10;1.98;;;17.70;99.90;;;;;;4226657;28;20044;-69
2022/07/15 01:59:12;;;;;;;5.63;1.60;;;17.60;99.90;;;;;;4226718;28;20065;-70
2022/07/15 02:01:13;;;;;;;4.47;1.60;;;17.50;99.90;;;;;;4224302;28;20023;-69
2022/07/15 02:03:15;;;;;;;8.50;1.65;;;17.30;99.90;;;;;;4209991;28;20044;-70
2022/07/15 02:05:16;;;;;;;5.40;1.63;;;17.30;99.90;;;;;;4209772;28;20419;-74
2022/07/15 02:07:18;;;;;;;3.38;2.05;;;17.20;99.90;;;;;;4209564;28;20557;-70
2022/07/15 02:09:19;;;;;;;5.88;1.98;;;17.20;99.90;;;;;;4209832;28;20476;-69
2022/07/15 02:11:20;;;;;;;2.38;1.90;;;17.10;99.90;;;;;;4209568;28;20024;-74
2022/07/15 02:13:21;;;;;;;3.08;1.80;;;17.00;99.90;;;;;;4209788;28;20036;-70
2022/07/15 02:15:22;;;;;;;5.50;2.35;;;17.10;99.90;;;;;;4210702;28;20028;-69
2022/07/15 02:17:24;;;;;;;9.45;2.10;;;17.00;99.90;;;;;;4209524;28;20028;-69
2022/07/15 02:19:25;;;;;;;9.05;2.05;;;17.00;99.90;;;;;;4221269;28;20073;-68
2022/07/15 02:21:26;;;;;;;5.00;2.30;;;17.00;99.90;;;;;;4225154;28;20043;-69
2022/07/15 02:23:28;;;;;;;10.07;2.88;;;16.90;99.90;;;;;;4209903;28;20102;-69
2022/07/15 02:25:32;;;;;;;6.82;2.22;;;16.90;99.90;;;;;;4209530;28;20036;-70
2022/07/15 02:27:33;;;;;;;8.45;2.55;;;16.90;99.90;;;;;;4209634;28;20024;-70
2022/07/15 02:29:35;;;;;;;8.45;2.72;;;16.80;99.90;;;;;;4210515;28;20422;-69
2022/07/15 02:31:36;;;;;;;8.57;2.67;;;16.70;99.90;;;;;;4209655;28;20407;-69
2022/07/15 02:33:38;;;;;;;13.63;2.70;;;16.70;99.90;;;;;;4209714;28;20541;-70
2022/07/15 02:35:39;;;;;;;10.00;2.60;;;16.70;99.90;;;;;;4223609;28;20100;-69
2022/07/15 02:37:42;;;;;;;9.25;2.65;;;16.70;99.90;;;;;;4226283;28;20476;-71
2022/07/15 02:39:43;;;;;;;6.50;2.75;;;16.70;99.90;;;;;;4226278;28;20088;-69
2022/07/15 02:41:44;;;;;;;8.35;2.13;;;16.70;99.90;;;;;;4218450;28;20052;-69
2022/07/15 02:43:45;;;;;;;8.15;2.90;;;16.80;99.90;;;;;;4211590;28;20382;-70
2022/07/15 02:45:46;;;;;;;9.88;2.80;;;16.80;99.90;;;;;;4212851;28;20032;-68
2022/07/15 02:47:48;;;;;;;5.90;2.40;;;16.80;99.90;;;;;;4212591;28;20058;-68
2022/07/15 02:49:49;;;;;;;4.00;2.53;;;16.80;99.90;;;;;;4212560;28;20073;-69
2022/07/15 02:51:50;;;;;;;9.45;2.30;;;16.90;99.90;;;;;;4212390;28;20580;-68
2022/07/15 02:53:52;;;;;;;9.57;2.75;;;17.00;99.90;;;;;;4211534;28;20943;-72
2022/07/15 02:55:53;;;;;;;2.85;2.25;;;17.00;99.90;;;;;;4212607;28;20081;-69
2022/07/15 02:57:54;;;;;;;5.70;2.40;;;17.10;99.90;;;;;;4212353;28;20036;-69
2022/07/15 02:59:55;;;;;;;4.80;1.92;;;17.10;99.90;;;;;;4212461;28;20434;-69
2022/07/15 03:01:56;;;;;;;11.73;3.10;;;17.10;99.90;;;;;;4212250;28;20414;-69
2022/07/15 03:03:57;;;;;;;4.18;2.20;;;17.20;99.90;;;;;;4212242;28;20503;-73
2022/07/15 03:06:00;;;;;;;9.18;2.65;;;17.20;99.90;;;;;;4219412;28;20088;-69
2022/07/15 03:08:01;;;;;;;10.32;2.40;;;17.20;99.90;;;;;;4228694;28;20096;-69
2022/07/15 03:10:03;;;;;;;7.65;2.20;;;17.20;99.90;;;;;;4229024;28;20043;-71
2022/07/15 03:12:05;;;;;;;11.30;2.95;;;17.30;99.90;;;;;;4228505;28;20058;-70
2022/07/15 03:14:06;;;;;;;5.50;2.03;;;17.30;99.90;;;;;;4227299;28;20559;-71
2022/07/15 03:16:07;;;;;;;7.32;2.25;;;17.50;99.90;;;;;;4228885;28;20872;-69
2022/07/15 03:18:08;;;;;;;4.53;2.53;;;17.60;99.90;;;;;;4229074;28;20104;-70
2022/07/15 03:20:10;;;;;;;4.07;2.25;;;17.70;99.90;;;;;;4228838;28;20019;-70
2022/07/15 03:22:11;;;;;;;7.95;2.58;;;17.80;99.90;;;;;;4228958;28;20035;-69
2022/07/15 03:24:13;;;;;;;8.43;3.63;;;17.80;99.90;;;;;;4226458;28;20084;-70
2022/07/15 03:26:14;;;;;;;9.25;2.92;;;17.80;99.90;;;;;;4227701;28;20027;-70
2022/07/15 03:28:15;;;;;;;8.52;4.28;;;17.80;99.90;;;;;;4216216;28;20032;-69
2022/07/15 03:30:16;;;;;;;10.90;3.42;;;17.90;99.90;;;;;;4211956;28;20442;-70
2022/07/15 03:32:20;;;;;;;7.43;3.17;;;18.00;99.90;;;;;;4212004;28;20027;-73
2022/07/15 03:34:21;;;;;;;9.93;3.67;;;18.10;99.90;;;;;;4212073;28;20027;-70
2022/07/15 03:36:26;;;;;;;7.97;2.90;;;18.30;99.90;;;;;;4212243;28;20077;-70
2022/07/15 03:38:27;;;;;;;12.93;3.47;;;18.50;99.90;;;;;;4211301;28;20032;-68
2022/07/15 03:40:28;;;;;;;7.63;2.65;;;18.70;99.90;;;;;;4224228;28;20402;-70
2022/07/15 03:42:29;;;;;;;11.05;3.92;;;18.90;99.90;;;;;;4214233;28;20052;-70
2022/07/15 03:44:30;;;;;;;14.68;3.63;;;19.00;99.90;;;;;;4228514;28;20418;-72
2022/07/15 03:46:31;;;;;;;17.20;3.47;;;19.10;99.90;;;;;;4228197;28;20024;-70
2022/07/15 03:48:32;;;;;;;8.23;2.75;;;19.30;99.90;;;;;;4228423;28;20032;-70
2022/07/15 03:50:35;;;;;;;11.00;3.72;;;19.40;99.90;;;;;;4224862;28;20061;-70
2022/07/15 03:52:36;;;;;;;10.25;2.85;;;19.60;99.90;;;;;;4211484;28;20031;-70
2022/07/15 03:54:37;;;;;;;14.52;3.33;;;19.80;99.90;;;;;;4212689;28;20044;-70
2022/07/15 03:56:39;;;;;;;11.60;2.88;;;20.20;99.90;;;;;;4214201;28;20821;-70
2022/07/15 03:58:40;;;;;;;11.98;2.67;;;20.40;99.90;;;;;;4211184;28;20036;-70
2022/07/15 04:00:41;;;;;;;13.55;3.15;;;20.70;99.90;;;;;;4212360;28;20040;-71
2022/07/15 04:02:43;;;;;;;10.10;3.05;;;21.10;99.90;;;;;;4210971;28;20040;-70
2022/07/15 04:04:44;;;;;;;6.97;2.90;;;21.50;99.90;;;;;;4211466;28;20035;-70
2022/07/15 04:06:45;;;;;;;11.30;2.50;;;21.80;99.90;;;;;;4212208;28;20573;-69
2022/07/15 04:08:47;;;;;;;15.38;3.00;;;22.10;99.90;;;;;;4211423;28;20046;-71
2022/07/15 04:10:48;;;;;;;8.68;2.58;;;22.70;99.90;;;;;;4212164;28;20438;-70
2022/07/15 04:12:49;;;;;;;6.32;2.67;;;23.40;99.90;;;;;;4211192;28;20040;-69
2022/07/15 04:14:51;;;;;;;11.38;3.78;;;23.90;99.80;;;;;;4218942;28;20453;-71
2022/07/15 04:16:52;;;;;;;6.97;2.92;;;24.30;98.90;;;;;;4227606;28;20081;-69
2022/07/15 04:18:53;;;;;;;7.57;3.35;;;24.60;98.30;;;;;;4226707;27;20043;-73
2022/07/15 04:20:56;;;;;;;7.28;2.95;;;24.80;97.60;;;;;;4227314;28;20100;-70
2022/07/15 04:22:57;;;;;;;10.07;3.10;;;25.00;97.10;;;;;;4225723;28;20088;-71
2022/07/15 04:24:58;;;;;;;6.50;3.10;;;25.30;96.60;;;;;;4220090;27;20181;-71
2022/07/15 04:26:59;;;;;;;11.60;4.25;;;25.50;96.00;;;;;;4210713;28;20089;-70
2022/07/15 04:29:00;;;;;;;9.63;3.03;;;25.60;95.60;;;;;;4211513;28;20073;-68
2022/07/15 04:31:01;;;;;;;9.32;2.83;;;25.90;95.20;;;;;;4200297;28;20086;-69
2022/07/15 04:33:03;;;;;;;8.60;3.15;;;26.40;94.70;;;;;;4193554;28;20090;-70
2022/07/15 04:35:04;;;;;;;12.65;2.67;;;26.50;93.90;;;;;;4193986;28;20481;-70
2022/07/15 04:37:06;;;;;;;7.97;2.40;;;26.60;93.50;;;;;;4196140;28;20420;-73
2022/07/15 04:39:07;;;;;;;7.25;3.10;;;26.90;93.10;;;;;;4219634;28;20047;-69
2022/07/15 04:41:08;;;;;;;6.00;1.90;;;27.10;92.60;;;;;;4226918;28;20023;-69
2022/07/15 04:43:09;;;;;;;5.13;2.00;;;27.20;92.10;;;;;;4226720;28;20491;-69
2022/07/15 04:45:10;;;;;;;6.70;1.95;;;27.20;91.70;;;;;;4216878;28;20032;-72
2022/07/15 04:47:12;;;;;;;8.77;2.38;;;27.30;91.40;;;;;;4209714;28;20039;-69
2022/07/15 04:51:33;;;;;;;13.43;2.72;;;27.20;91.20;;;;;;4209744;28;20036;-69
2022/07/15 04:53:34;;;;;;;11.65;2.80;;;27.20;91.00;;;;;;4209630;28;20085;-69
2022/07/15 04:55:35;;;;;;;13.52;2.85;;;27.10;91.10;;;;;;4213847;28;20092;-69
2022/07/15 04:57:36;;;;;;;9.52;3.03;;;27.20;91.00;;;;;;4220023;28;20422;-68
2022/07/15 04:59:38;;;;;;;12.32;2.55;;;27.10;91.20;;;;;;4210149;28;20036;-69
2022/07/15 05:01:39;;;;;;;9.57;3.40;;;27.00;91.00;;;;;;4210251;28;20089;-69
2022/07/15 05:03:40;;;;;;;27.02;3.17;;;27.10;90.90;;;;;;4209837;28;20434;-69
2022/07/15 05:05:41;;;;;;;14.98;3.30;;;27.50;90.80;;;;;;4209618;28;20082;-73
2022/07/15 05:07:42;;;;;;;13.45;3.08;;;27.80;90.50;;;;;;4209963;28;20129;-71
2022/07/15 05:09:45;;;;;;;14.85;2.75;;;27.80;90.10;;;;;;4210143;28;20629;-75
2022/07/15 05:11:46;;;;;;;14.98;3.20;;;28.10;90.00;;;;;;4209945;28;20062;-69
2022/07/15 05:13:47;;;;;;;8.88;2.72;;;28.10;89.40;;;;;;4209906;28;20127;-66
2022/07/15 05:15:48;;;;;;;20.40;2.70;;;27.90;89.30;;;;;;4205933;28;20032;-68
2022/07/15 05:17:50;;;;;;;8.98;2.60;;;27.60;89.40;;;;;;4193142;28;20445;-68
2022/07/15 05:19:52;;;;;;;14.15;2.47;;;27.20;88.80;;;;;;4192845;28;20044;-67
2022/07/15 05:21:53;;;;;;;9.23;2.25;;;26.50;89.60;;;;;;4192938;28;20032;-66
2022/07/15 05:23:54;;;;;;;6.10;2.00;;;26.50;90.20;;;;;;4193298;28;20089;-66
2022/07/15 05:25:55;;;;;;;8.90;2.85;;;26.50;89.90;;;;;;4192859;28;20058;-67
2022/07/15 05:27:57;;;;;;;11.80;2.67;;;26.40;89.60;;;;;;4193231;28;20074;-67
2022/07/15 05:29:58;;;;;;;8.00;1.80;;;26.60;89.40;;;;;;4192867;28;20024;-67
2022/07/15 05:31:59;;;;;;;8.88;2.50;;;26.70;89.60;;;;;;4192373;28;20108;-66
2022/07/15 05:34:00;;;;;;;3.38;1.60;;;26.90;88.50;;;;;;4193215;28;20028;-71
2022/07/15 05:36:01;;;;;;;8.35;2.45;;;27.30;87.70;;;;;;4192644;28;20040;-67
2022/07/15 05:38:03;;;;;;;6.05;1.88;;;27.30;86.80;;;;;;4193061;28;20037;-71
2022/07/15 05:40:06;;;;;;;7.18;1.90;;;27.20;86.50;;;;;;4192823;28;20048;-68
2022/07/15 05:42:07;;;;;;;3.08;1.98;;;27.40;86.40;;;;;;4191352;28;20048;-69
2022/07/15 05:44:08;;;;;;;3.95;1.45;;;27.20;86.10;;;;;;4192688;28;20048;-68
2022/07/15 05:46:10;;;;;;;8.45;1.60;;;27.00;86.30;;;;;;4192375;28;20028;-68
2022/07/15 05:48:11;;;;;;;8.45;1.85;;;27.00;86.40;;;;;;4192658;28;20028;-67
2022/07/15 05:50:13;;;;;;;10.75;1.70;;;27.40;86.40;;;;;;4191284;28;20071;-68
2022/07/15 05:52:14;;;;;;;5.72;1.73;;;27.30;85.70;;;;;;4192682;28;20020;-67
2022/07/15 05:54:15;;;;;;;6.20;1.90;;;27.40;85.60;;;;;;4192850;28;20094;-70
2022/07/15 05:56:16;;;;;;;5.95;1.77;;;27.30;85.70;;;;;;4192964;28;20041;-67
2022/07/15 05:58:17;;;;;;;12.02;2.30;;;27.40;85.40;;;;;;4193130;28;20052;-69
2022/07/15 06:00:19;;;;;;;6.53;1.67;;;27.20;85.50;;;;;;4192408;28;20097;-66
2022/07/15 06:02:20;;;;;;;6.50;2.40;;;27.30;85.20;;;;;;4192184;28;20028;-69
2022/07/15 06:04:21;;;;;;;3.67;1.80;;;27.30;85.10;;;;;;4192718;28;20451;-66
2022/07/15 06:06:22;;;;;;;4.60;1.40;;;27.00;85.40;;;;;;4192679;28;20095;-70
2022/07/15 06:08:23;;;;;;;5.97;2.10;;;27.00;85.30;;;;;;4191675;28;20050;-69
2022/07/15 06:10:25;;;;;;;6.05;1.80;;;27.10;85.50;;;;;;4191913;28;20032;-70
2022/07/15 06:12:26;;;;;;;3.25;2.60;;;26.90;85.80;;;;;;4190886;28;20090;-69
2022/07/15 06:14:27;;;;;;;3.40;1.40;;;26.50;86.00;;;;;;4191980;28;20017;-66
2022/07/15 06:16:28;;;;;;;7.10;1.90;;;26.40;86.50;;;;;;4191218;28;20568;-71
2022/07/15 06:18:29;;;;;;;2.83;1.70;;;26.40;86.50;;;;;;4192498;28;20040;-69
2022/07/15 06:20:31;;;;;;;7.18;1.50;;;26.50;86.70;;;;;;4194659;28;20085;-65
2022/07/15 06:22:32;;;;;;;11.00;2.15;;;26.90;85.90;;;;;;4194695;28;20399;-69
2022/07/15 06:24:33;;;;;;;10.30;1.88;;;27.40;85.30;;;;;;4194809;28;20044;-66
2022/07/15 06:26:34;;;;;;;5.35;1.90;;;27.40;84.70;;;;;;4194486;28;20074;-67
2022/07/15 06:28:35;;;;;;;9.05;2.20;;;27.20;85.00;;;;;;4194969;28;20058;-68
2022/07/15 06:30:37;;;;;;;6.40;2.20;;;26.70;85.50;;;;;;4194295;28;20090;-68
2022/07/15 06:32:38;;;;;;;6.00;2.10;;;26.20;86.80;;;;;;4194698;28;20089;-69
2022/07/15 06:34:39;;;;;;;13.40;2.20;;;25.70;87.80;;;;;;4194678;28;20082;-69
2022/07/15 06:36:41;;;;;;;4.45;1.58;;;25.40;88.70;;;;;;4194249;28;20082;-66
2022/07/15 06:38:42;;;;;;;5.85;1.40;;;25.30;89.10;;;;;;4194720;28;20094;-70
2022/07/15 06:40:43;;;;;;;6.28;1.88;;;25.10;89.50;;;;;;4194322;28;20032;-68
2022/07/15 06:42:44;;;;;;;2.75;1.38;;;25.00;89.80;;;;;;4194737;28;20055;-69
2022/07/15 06:44:45;;;;;;;8.35;1.60;;;24.80;89.70;;;;;;4194027;28;20086;-68
2022/07/15 06:46:46;;;;;;;9.75;2.30;;;24.50;90.10;;;;;;4193974;28;20028;-69
2022/07/15 06:48:47;;;;;;;1.77;1.30;;;24.40;90.30;;;;;;4194168;28;20045;-72
2022/07/15 06:50:49;;;;;;;9.02;2.20;;;24.30;90.40;;;;;;4194197;28;20048;-71
2022/07/15 06:52:50;;;;;;;3.45;1.55;;;24.20;90.60;;;;;;4193894;28;20124;-70
2022/07/15 06:54:53;;;;;;;6.68;1.27;;;24.20;90.80;;;;;;4194174;28;20070;-67
2022/07/15 06:56:54;;;;;;;6.93;1.58;;;24.20;90.80;;;;;;4194037;28;20021;-68
2022/07/15 06:58:55;;;;;;;5.90;1.70;;;24.20;90.70;;;;;;4194014;28;20032;-71
2022/07/15 07:00:58;;;;;;;6.47;2.05;;;24.20;90.80;;;;;;4193633;28;20028;-67
2022/07/15 07:02:59;;;;;;;5.25;2.00;;;24.20;91.00;;;;;;4194392;28;20431;-69
2022/07/15 07:05:01;;;;;;;6.10;1.60;;;24.50;90.80;;;;;;4195159;28;20028;-68
2022/07/15 07:07:02;;;;;;;6.82;1.60;;;24.70;90.60;;;;;;4151188;28;1239607;-65
2022/07/15 07:09:04;;;;;;;5.82;1.63;;;24.80;90.60;;;;;;4195183;28;20032;-68
2022/07/15 07:11:05;;;;;;;5.10;1.10;;;24.90;90.50;;;;;;4194869;28;20024;-67
2022/07/15 07:13:06;;;;;;;6.70;1.33;;;24.80;90.60;;;;;;4195194;28;20036;-68
2022/07/15 07:15:09;;;;;;;5.07;1.42;;;24.70;90.70;;;;;;4192995;28;20044;-70
2022/07/15 07:17:10;;;;;;;11.27;3.63;;;24.60;90.80;;;;;;4195210;28;20443;-71
2022/07/15 07:19:12;;;;;;;7.10;2.47;;;24.50;91.10;;;;;;4193761;28;20044;-66
2022/07/15 07:21:14;;;;;;;6.20;1.88;;;24.50;91.20;;;;;;4194729;28;20040;-66
2022/07/15 07:23:15;;;;;;;6.40;3.30;;;24.60;91.20;;;;;;4194736;28;20419;-73
2022/07/15 07:25:16;;;;;;;5.90;2.25;;;24.50;91.20;;;;;;4195018;28;20024;-71
2022/07/15 07:27:17;;;;;;;5.03;1.92;;;24.60;91.20;;;;;;4194616;28;20078;-70
2022/07/15 07:29:22;;;;;;;11.85;3.03;;;24.60;91.20;;;;;;4194603;28;20044;-69
2022/07/15 07:31:26;;;;;;;5.65;2.22;;;24.60;91.10;;;;;;4194627;28;20448;-71
2022/07/15 07:33:27;;;;;;;4.15;2.50;;;24.70;91.40;;;;;;4195853;28;20094;-71
2022/07/15 07:35:28;;;;;;;6.13;2.55;;;24.80;91.50;;;;;;4194942;28;20021;-70
2022/07/15 07:37:34;;;;;;;3.55;1.65;;;24.90;91.80;;;;;;4194820;28;20087;-69
2022/07/15 07:39:35;;;;;;;4.32;2.00;;;24.80;92.20;;;;;;4194490;28;20075;-71
2022/07/15 07:41:36;;;;;;;4.25;2.08;;;24.90;91.80;;;;;;4194891;28;20447;-71
2022/07/15 07:43:38;;;;;;;6.60;1.60;;;24.80;91.90;;;;;;4194587;28;20032;-67
2022/07/15 07:45:39;;;;;;;4.75;1.98;;;24.80;92.20;;;;;;4193914;28;20066;-70
2022/07/15 07:47:41;;;;;;;7.53;2.00;;;24.60;92.40;;;;;;4194702;28;20086;-68
2022/07/15 07:49:44;;;;;;;6.30;1.60;;;24.60;92.50;;;;;;4194398;28;20049;-70
2022/07/15 07:51:45;;;;;;;4.75;1.73;;;24.60;92.70;;;;;;4194891;28;20114;-72
2022/07/15 07:53:46;;;;;;;4.63;1.92;;;25.00;92.40;;;;;;4194576;28;20044;-69
2022/07/15 07:55:48;;;;;;;6.38;2.35;;;25.50;92.10;;;;;;4193998;28;20090;-69
2022/07/15 07:57:53;;;;;;;7.18;2.55;;;25.70;91.80;;;;;;4194180;28;20020;-69
2022/07/15 07:59:54;;;;;;;5.43;1.63;;;26.00;91.50;;;;;;4193644;28;20040;-72
2022/07/15 08:01:56;;;;;;;2.88;1.67;;;26.00;91.50;;;;;;4194191;28;20113;-72
2022/07/15 08:03:57;;;;;;;7.03;1.73;;;25.80;91.60;;;;;;4194690;28;20102;-73
2022/07/15 08:05:59;;;;;;;6.43;1.73;;;25.60;91.70;;;;;;4194021;28;20090;-70
2022/07/15 08:08:06;;;;;;;12.93;2.25;;;25.50;91.70;;;;;;4193917;28;20101;-71
2022/07/15 08:10:09;;;;;;;6.88;1.88;;;25.30;91.70;;;;;;4194053;28;20063;-69
2022/07/15 08:12:10;;;;;;;6.53;1.85;;;25.40;91.70;;;;;;4194483;28;20542;-71
2022/07/15 08:14:11;;;;;;;4.70;1.60;;;25.50;91.60;;;;;;4194218;28;20036;-64
2022/07/15 08:16:12;;;;;;;5.45;2.22;;;25.50;91.40;;;;;;4193768;28;20854;-65
2022/07/15 08:18:15;;;;;;;7.40;2.25;;;25.70;91.30;;;;;;4194106;28;20066;-67
2022/07/15 08:20:16;;;;;;;6.78;2.00;;;25.70;91.30;;;;;;4194035;28;20082;-67
2022/07/15 08:22:17;;;;;;;5.57;1.77;;;25.80;91.20;;;;;;4194080;28;20033;-66
2022/07/15 08:24:18;;;;;;;2.80;1.98;;;25.90;91.00;;;;;;4193708;28;20056;-73
2022/07/15 08:26:23;;;;;;;4.53;1.70;;;26.20;90.80;;;;;;4194213;28;20448;-71
2022/07/15 08:28:24;;;;;;;3.42;1.60;;;26.30;90.60;;;;;;4194036;28;20016;-69
2022/07/15 08:30:27;;;;;;;3.47;1.73;;;26.30;90.50;;;;;;4193243;28;20150;-68
2022/07/15 08:32:28;;;;;;;5.88;1.48;;;26.40;90.50;;;;;;4193961;28;20040;-66
2022/07/15 08:34:29;;;;;;;6.53;1.75;;;26.20;90.40;;;;;;4193985;28;20829;-68
2022/07/15 08:36:30;;;;;;;2.65;1.60;;;26.10;90.50;;;;;;4193261;28;20089;-71
2022/07/15 08:38:31;;;;;;;4.82;2.00;;;26.00;90.50;;;;;;4193556;28;20439;-71
2022/07/15 08:40:37;;;;;;;7.60;1.45;;;26.00;90.60;;;;;;4192618;28;20028;-75
2022/07/15 08:42:41;;;;;;;4.43;1.55;;;26.10;90.60;;;;;;4193833;28;20121;-74
2022/07/15 08:44:43;;;;;;;4.57;1.60;;;26.00;90.60;;;;;;4191349;28;20044;-69
2022/07/15 08:46:47;;;;;;;2.97;1.30;;;25.90;90.60;;;;;;4193480;28;20070;-69
2022/07/15 08:48:51;;;;;;;4.63;1.50;;;25.90;90.80;;;;;;4193370;28;20028;-70
2022/07/15 08:50:53;;;;;;;4.25;2.00;;;25.80;90.80;;;;;;4193280;28;20037;-71
2022/07/15 08:52:55;;;;;;;7.55;1.48;;;25.90;90.90;;;;;;4193214;28;20361;-69
2022/07/15 08:54:56;;;;;;;6.43;1.65;;;26.00;90.90;;;;;;4193498;28;20033;-69
2022/07/15 08:56:58;;;;;;;2.58;1.60;;;26.10;90.90;;;;;;4193078;28;20028;-73
2022/07/15 08:59:01;;;;;;;6.75;1.23;;;26.20;91.00;;;;;;4192645;28;20488;-69
2022/07/15 09:01:02;;;;;;;13.10;3.13;;;26.30;91.00;;;;;;4193286;28;20036;-74
2022/07/15 09:03:05;;;;;;;13.48;2.63;;;26.40;90.80;;;;;;4193078;28;20362;-66
2022/07/15 09:05:22;;;;;;;7.32;1.67;;;26.70;90.50;;;;;;4193323;28;20036;-68
2022/07/15 09:07:23;;;;;;;9.15;1.70;;;27.00;90.20;;;;;;4193168;28;20036;-68
2022/07/15 09:09:30;;;;;;;15.50;2.20;;;27.30;90.10;;;;;;4193043;28;20029;-71
2022/07/15 09:11:31;;;;;;;4.63;1.63;;;27.50;88.70;;;;;;4193024;28;20070;-71
2022/07/15 09:13:40;;;;;;;7.97;1.60;;;27.80;88.40;;;;;;4193030;28;20033;-71
2022/07/15 09:15:41;;;;;;;20.00;3.15;;;28.00;88.30;;;;;;4192336;28;20117;-68
2022/07/15 09:17:42;;;;;;;14.55;1.88;;;28.10;88.40;;;;;;4192886;28;20045;-71
2022/07/15 09:20:07;;;;;;;15.80;2.22;;;28.40;87.20;;;;;;4192659;28;20036;-70
2022/07/15 09:22:08;;;;;;;28.30;4.78;;;28.60;84.70;;;;;;4192978;28;20032;-73
2022/07/15 09:24:17;;;;;;;16.20;2.83;;;28.80;84.80;;;;;;4192957;28;20530;-75
2022/07/15 09:26:33;;;;;;;7.63;1.10;;;29.00;82.50;;;;;;4192728;28;20033;-71
2022/07/15 09:28:40;;;;;;;11.93;0.90;;;28.90;80.30;;;;;;4192203;28;20117;-69
2022/07/15 09:36:10;;;;;;;3.35;1.35;;;28.00;81.50;;;;;;4174540;28;20094;-71
2022/07/15 09:38:11;;;;;;;17.67;3.45;;;27.90;81.40;;;;;;4174475;28;20075;-74
2022/07/15 09:40:12;;;;;;;9.75;2.05;;;28.00;81.90;;;;;;4175234;28;20032;-70
2022/07/15 09:42:13;;;;;;;8.43;1.75;;;28.30;81.30;;;;;;4192487;28;20434;-71
2022/07/15 09:44:15;;;;;;;2.42;1.00;;;28.60;81.80;;;;;;4191955;28;20120;-69
2022/07/15 09:46:19;;;;;;;1.98;1.10;;;28.40;82.00;;;;;;4192678;28;20385;-69
2022/07/15 09:48:20;;;;;;;9.05;0.90;;;28.30;81.40;;;;;;4193166;28;20082;-74
2022/07/15 09:50:36;;;;;;;1.48;0.60;;;28.30;81.10;;;;;;4192834;28;20032;-70
2022/07/15 09:52:47;;;;;;;3.30;0.80;;;28.30;79.30;;;;;;4192550;28;20094;-70
2022/07/15 09:54:49;;;;;;;4.97;0.90;;;28.10;80.10;;;;;;4193057;28;20032;-70
2022/07/15 09:56:51;;;;;;;2.35;0.77;;;28.40;80.00;;;;;;4192898;28;20036;-73
2022/07/15 09:58:52;;;;;;;9.55;1.20;;;28.40;78.70;;;;;;4192106;28;20457;-70
2022/07/15 10:00:54;;;;;;;4.95;1.02;;;28.60;78.00;;;;;;4192377;28;20094;-70
2022/07/15 10:02:56;;;;;;;16.13;2.33;;;28.60;77.10;;;;;;4192265;28;20024;-70
2022/07/15 10:04:57;;;;;;;3.05;0.70;;;28.50;77.10;;;;;;4193089;28;20041;-73
2022/07/15 10:06:59;;;;;;;0.60;0.50;;;28.30;76.60;;;;;;4192540;28;20508;-73
2022/07/15 10:09:03;;;;;;;10.07;1.70;;;28.20;76.60;;;;;;4192314;28;20078;-72
2022/07/15 10:11:09;;;;;;;6.32;1.13;;;28.00;76.80;;;;;;4192261;28;20431;-75
2022/07/15 10:13:39;;;;;;;10.77;1.20;;;28.10;76.70;;;;;;4192429;28;20041;-70
2022/07/15 10:15:52;;;;;;;6.43;0.80;;;28.00;75.10;;;;;;4192250;28;20070;-73
2022/07/15 10:17:53;;;;;;;1.67;0.73;;;28.00;75.90;;;;;;4192572;28;20040;-71
2022/07/15 10:20:20;;;;;;;9.90;1.20;;;28.00;75.40;;;;;;4192439;28;20070;-71
2022/07/15 10:22:30;;;;;;;2.55;0.73;;;28.10;75.90;;;;;;4192082;28;20036;-68
2022/07/15 10:24:50;;;;;;;;;;;28.30;75.10;;;;;;4193047;28;20080;-74
2022/07/15 10:27:18;;;;;;;3.38;0.65;;;28.30;74.20;;;;;;4192806;28;19908;-70
2022/07/15 10:29:20;;;;;;;5.43;0.90;;;28.40;72.90;;;;;;4191755;28;20040;-71
2022/07/15 10:31:25;;;;;;;3.05;0.60;;;28.20;74.10;;;;;;4192309;28;20066;-69
2022/07/15 10:33:26;;;;;;;3.80;0.50;;;28.20;74.00;;;;;;4192099;28;20044;-72
2022/07/15 10:35:41;;;;;;;1.33;0.60;;;28.40;74.80;;;;;;4192364;28;20052;-68
2022/07/15 10:38:22;;;;;;;2.95;0.60;;;28.50;73.70;;;;;;4192444;28;20106;-74
2022/07/15 10:41:02;;;;;;;2.67;0.68;;;28.60;73.50;;;;;;4191840;28;20400;-69
2022/07/15 10:43:03;;;;;;;2.30;0.63;;;28.80;73.60;;;;;;4191789;28;20037;-69
2022/07/15 10:45:07;;;;;;;2.75;0.60;;;29.10;73.70;;;;;;4192193;28;20473;-67
2022/07/15 10:47:14;;;;;;;2.47;0.90;;;29.20;73.40;;;;;;4191902;28;20129;-72